createdAt,value
2022-09-20T00:14:22.057Z,2.20
2022-09-20T00:29:25.531Z,2.20
2022-09-20T00:44:58.338Z,2.28
2022-09-20T01:00:00.395Z,2.38
2022-09-20T04:39:22.080Z,5.20
2022-09-20T04:54:54.589Z,3.65
2022-09-20T05:10:02.193Z,3.80
2022-09-20T05:25:24.208Z,2.97
2022-09-20T05:40:39.427Z,2.58
2022-09-20T05:56:03.055Z,12.63
2022-09-20T06:11:18.075Z,15.40
2022-09-20T06:26:23.713Z,9.13
2022-09-20T06:41:28.722Z,4.22
2022-09-20T06:56:35.501Z,3.38
2022-09-20T07:11:37.453Z,6.93
2022-09-20T07:26:39.428Z,5.13
2022-09-20T07:41:41.310Z,2.92
2022-09-20T07:56:44.877Z,2.20
2022-09-20T08:11:47.465Z,2.47
2022-09-20T08:26:49.412Z,4.47
2022-09-20T08:41:56.715Z,3.47
2022-09-20T08:57:00.332Z,2.53
2022-09-20T09:12:02.321Z,3.67
2022-09-20T09:27:09.848Z,3.28
2022-09-20T09:42:23.846Z,2.67
2022-09-20T09:57:54.074Z,3.53
2022-09-20T10:12:59.808Z,2.83
2022-09-20T10:28:12.211Z,4.45
2022-09-20T10:43:21.987Z,2.63
2022-09-20T10:58:30.643Z,4.32
2022-09-20T11:13:50.084Z,3.30
2022-09-20T11:28:55.309Z,3.05
2022-09-20T11:44:11.091Z,4.53
2022-09-20T11:59:40.443Z,3.92
2022-09-20T12:14:42.355Z,2.60
2022-09-20T12:29:47.700Z,2.50
2022-09-20T12:44:49.539Z,2.28
2022-09-20T12:59:56.662Z,3.03
2022-09-20T13:14:58.597Z,2.15
2022-09-20T13:30:30.308Z,2.22
2022-09-20T13:45:34.079Z,2.05
2022-09-20T14:00:37.824Z,2.03
2022-09-20T14:15:42.742Z,2.72
2022-09-20T14:30:45.044Z,3.08
2022-09-20T14:45:55.426Z,4.05
2022-09-20T15:01:01.347Z,2.13
2022-09-20T15:16:03.383Z,2.10
2022-09-20T15:31:05.317Z,2.55
2022-09-20T15:46:27.484Z,2.75
2022-09-20T16:01:39.921Z,2.95
2022-09-20T16:16:41.966Z,3.33
2022-09-20T16:31:47.808Z,2.40
2022-09-20T16:46:50.395Z,2.25
2022-09-20T17:01:52.581Z,2.60
2022-09-20T17:16:56.736Z,2.47
2022-09-20T17:32:00.256Z,2.90
2022-09-20T17:47:02.647Z,3.28
2022-09-20T18:02:04.690Z,2.70
2022-09-20T18:17:07.297Z,3.88
2022-09-20T18:32:09.187Z,3.03
2022-09-20T18:47:11.065Z,2.63
2022-09-20T19:02:23.736Z,2.42
2022-09-20T19:17:35.425Z,2.72
2022-09-20T19:32:37.699Z,2.75
2022-09-20T19:48:00.206Z,2.70
2022-09-20T20:03:02.837Z,2.85
2022-09-20T20:18:44.119Z,2.90
2022-09-20T20:33:46.002Z,3.03
2022-09-20T20:48:47.953Z,3.08
2022-09-20T21:03:52.123Z,2.70
2022-09-20T21:18:54.082Z,3.35
2022-09-20T21:33:56.230Z,3.20
2022-09-20T21:48:59.509Z,3.67
2022-09-20T22:04:04.024Z,3.50
2022-09-20T22:19:07.045Z,3.40
2022-09-20T22:34:08.890Z,3.10
2022-09-20T22:49:10.811Z,3.03
2022-09-20T23:04:17.198Z,2.70
2022-09-20T23:19:19.075Z,2.70
2022-09-20T23:34:20.990Z,2.40
2022-09-20T23:49:22.851Z,2.42
